createdAt,value
2019-04-10T00:00:39.227Z,99978.58
2019-04-10T00:05:44.439Z,99980.26
2019-04-10T00:10:48.682Z,99982.59
2019-04-10T00:15:52.908Z,99981.36
2019-04-10T00:20:56.974Z,99981.36
2019-04-10T00:26:01.474Z,99983.41
2019-04-10T00:31:05.759Z,99983.41
2019-04-10T00:36:10.047Z,99985.37
2019-04-10T00:41:14.238Z,99988.28
2019-04-10T00:46:18.282Z,99972.83
2019-04-10T00:51:23.423Z,99982.65
2019-04-10T00:56:28.363Z,99968.91
2019-04-10T01:01:32.512Z,99986.81
2019-04-10T01:06:36.572Z,99986.90
2019-04-10T01:11:41.401Z,99983.84
2019-04-10T01:16:45.631Z,99987.14
2019-04-10T01:21:50.697Z,99986.78
2019-04-10T01:26:55.832Z,99981.88
2019-04-10T01:31:59.939Z,99980.75
2019-04-10T01:37:04.775Z,99977.69
2019-04-10T01:42:08.983Z,99985.77
2019-04-10T01:47:13.087Z,99982.34
2019-04-10T01:52:17.300Z,99981.45
2019-04-10T01:57:21.962Z,99983.89
2019-04-10T02:02:31.624Z,99977.25
2019-04-10T02:07:35.709Z,99975.05
2019-04-10T02:12:40.941Z,99968.31
2019-04-10T02:17:45.149Z,99964.00
2019-04-10T02:22:49.915Z,99964.00
2019-04-10T02:27:54.391Z,99965.96
2019-04-10T02:32:59.774Z,99968.77
2019-04-10T02:38:24.447Z,99968.38
2019-04-10T02:43:11.773Z,99966.17
2019-04-10T02:48:16.949Z,99966.17
2019-04-10T02:53:21.689Z,99962.63
2019-04-10T02:58:26.531Z,99961.52
2019-04-10T03:03:30.694Z,99965.64
2019-04-10T03:08:51.558Z,99960.38
2019-04-10T03:13:40.765Z,99975.19
2019-04-10T03:18:45.183Z,99972.13
2019-04-10T03:23:49.608Z,99972.13
2019-04-10T03:28:53.710Z,99976.37
2019-04-10T03:34:20.772Z,99987.13
2019-04-10T03:39:23.751Z,99982.61
2019-04-10T03:44:27.787Z,99981.02
2019-04-10T03:49:32.286Z,99985.21
2019-04-10T03:54:37.425Z,99979.79
2019-04-10T03:59:42.114Z,99981.22
2019-04-10T04:04:48.043Z,99988.19
2019-04-10T04:09:52.203Z,99988.19
2019-04-10T04:14:56.920Z,99992.34
2019-04-10T04:20:01.051Z,100003.59
2019-04-10T04:25:06.817Z,100003.59
2019-04-10T04:30:12.601Z,100001.11
2019-04-10T04:35:17.565Z,100003.43
2019-04-10T04:40:21.825Z,100003.43
2019-04-10T04:45:25.807Z,100005.27
2019-04-10T04:50:29.798Z,100019.77
2019-04-10T04:55:33.806Z,100019.77
2019-04-10T05:00:37.854Z,100022.21
2019-04-10T05:05:41.861Z,100022.21
2019-04-10T05:10:46.045Z,100034.44
2019-04-10T05:15:51.305Z,100032.69
2019-04-10T05:20:56.657Z,100040.76
2019-04-10T05:26:00.912Z,100039.91
2019-04-10T05:31:04.918Z,100039.91
2019-04-10T05:36:09.018Z,100045.03
2019-04-10T05:41:13.380Z,100047.84
2019-04-10T05:46:18.606Z,100047.84
2019-04-10T05:51:23.337Z,100049.17
2019-04-10T05:56:27.955Z,100043.80
2019-04-10T06:01:36.727Z,100045.62
2019-04-10T06:06:38.718Z,100045.62
2019-04-10T06:11:44.508Z,100046.86
2019-04-10T06:16:48.988Z,100049.27
2019-04-10T06:21:53.044Z,100055.50
2019-04-10T06:26:57.124Z,100056.84
2019-04-10T06:32:01.229Z,100049.75
2019-04-10T06:37:06.142Z,100049.81
2019-04-10T06:42:10.316Z,100062.71
2019-04-10T06:47:14.406Z,100066.26
2019-04-10T06:52:18.634Z,100074.25
2019-04-10T06:57:22.945Z,100071.15
2019-04-10T07:02:30.539Z,100071.15
2019-04-10T07:07:45.489Z,100084.78
2019-04-10T07:12:39.731Z,100085.44
2019-04-10T07:17:45.019Z,100074.52
2019-04-10T07:22:49.728Z,100074.52
2019-04-10T07:27:54.352Z,100082.44
2019-04-10T07:32:59.272Z,100087.89
2019-04-10T07:38:03.491Z,100087.89
2019-04-10T07:43:07.493Z,100077.22
2019-04-10T07:48:12.769Z,100084.63
2019-04-10T07:53:16.993Z,100084.63
2019-04-10T07:58:21.485Z,100080.71
2019-04-10T08:03:25.833Z,100090.22
2019-04-10T08:08:30.067Z,100085.45
2019-04-10T08:13:34.155Z,100073.13
2019-04-10T08:18:39.354Z,100084.11
2019-04-10T08:23:44.600Z,100084.11
2019-04-10T08:28:49.710Z,100098.83
2019-04-10T08:33:54.777Z,100101.34
2019-04-10T08:38:59.243Z,100096.39
2019-04-10T08:44:04.438Z,100096.39
2019-04-10T08:49:08.828Z,100100.53
2019-04-10T08:54:12.845Z,100100.53
2019-04-10T08:59:17.314Z,100090.95
2019-04-10T09:04:21.322Z,100092.04
2019-04-10T09:09:25.722Z,100092.04
2019-04-10T09:14:29.880Z,100096.64
2019-04-10T09:19:34.054Z,100095.95
2019-04-10T09:24:38.415Z,100105.57
2019-04-10T09:29:42.710Z,100101.81
2019-04-10T09:34:48.120Z,100084.64
2019-04-10T09:39:53.442Z,100095.77
2019-04-10T09:44:57.975Z,100090.02
2019-04-10T09:50:02.295Z,100084.11
2019-04-10T09:55:07.628Z,100097.06
2019-04-10T10:00:12.063Z,100097.06
2019-04-10T10:05:16.203Z,100074.36
2019-04-10T10:10:20.650Z,100082.42
2019-04-10T10:15:25.299Z,100079.25
2019-04-10T10:20:30.697Z,100079.25
2019-04-10T10:25:35.398Z,100067.66
2019-04-10T10:30:39.750Z,100067.66
2019-04-10T10:35:43.910Z,100071.20
2019-04-10T10:40:48.754Z,100071.20
2019-04-10T10:45:53.428Z,100071.09
2019-04-10T10:50:58.282Z,100070.89
2019-04-10T10:56:02.446Z,100070.89
2019-04-10T11:01:07.419Z,100084.06
2019-04-10T11:06:12.857Z,100078.20
2019-04-10T11:11:17.184Z,100084.47
2019-04-10T11:16:21.294Z,100091.00
2019-04-10T11:21:25.376Z,100091.00
2019-04-10T11:26:30.288Z,100074.25
2019-04-10T11:31:35.658Z,100074.25
2019-04-10T11:36:40.107Z,100054.03
2019-04-10T11:41:45.788Z,100066.30
2019-04-10T11:46:52.676Z,100060.45
2019-04-10T11:51:59.587Z,100072.53
2019-04-10T11:57:03.262Z,100072.53
2019-04-10T12:02:08.818Z,100069.06
2019-04-10T12:07:49.141Z,100071.97
2019-04-10T12:12:19.528Z,100071.86
2019-04-10T12:17:23.659Z,100065.03
2019-04-10T12:22:27.807Z,100066.48
2019-04-10T12:27:31.924Z,100068.98
2019-04-10T12:32:36.718Z,100068.98
2019-04-10T12:37:41.251Z,100065.00
2019-04-10T12:42:46.163Z,100061.48
2019-04-10T12:47:50.328Z,100061.48
2019-04-10T12:52:54.732Z,100068.09
2019-04-10T12:58:06.660Z,100069.98
2019-04-10T13:03:05.110Z,100060.74
2019-04-10T13:08:17.872Z,100062.02
2019-04-10T13:13:15.201Z,100062.02
2019-04-10T13:18:20.445Z,100058.44
2019-04-10T13:23:24.830Z,100054.08
2019-04-10T13:28:29.722Z,100063.30
2019-04-10T13:33:33.965Z,100065.27
2019-04-10T13:38:38.384Z,100065.27
2019-04-10T13:43:42.584Z,100059.34
2019-04-10T13:48:47.259Z,100057.47
2019-04-10T13:53:52.332Z,100059.31
2019-04-10T13:58:56.399Z,100059.31
2019-04-10T14:04:00.845Z,100065.99
2019-04-10T14:09:28.104Z,100065.99
2019-04-10T14:14:16.191Z,100064.04
2019-04-10T14:19:21.401Z,100064.04
2019-04-10T14:24:26.314Z,100057.31
2019-04-10T14:29:32.264Z,100057.31
2019-04-10T14:34:36.641Z,100064.08
2019-04-10T14:39:41.151Z,100067.17
2019-04-10T14:44:46.466Z,100067.17
2019-04-10T14:49:52.567Z,100061.67
2019-04-10T14:54:56.531Z,100065.83
2019-04-10T15:00:00.700Z,100065.22
2019-04-10T15:05:05.819Z,100075.02
2019-04-10T15:10:10.234Z,100075.02
2019-04-10T15:15:14.380Z,100077.25
2019-04-10T15:20:18.370Z,100076.94
2019-04-10T15:25:23.001Z,100081.29
2019-04-10T15:30:27.146Z,100091.78
2019-04-10T15:35:31.228Z,100091.78
2019-04-10T15:40:36.453Z,100095.00
2019-04-10T15:45:40.892Z,100094.14
2019-04-10T15:50:45.092Z,100089.05
2019-04-10T15:55:49.578Z,100089.81
2019-04-10T16:00:53.869Z,100098.71
2019-04-10T16:05:57.903Z,100103.78
2019-04-10T16:11:19.775Z,100103.78
2019-04-10T16:16:48.967Z,100105.92
2019-04-10T16:21:54.269Z,100100.25
2019-04-10T16:26:58.433Z,100100.25
2019-04-10T16:32:02.605Z,100107.12
2019-04-10T16:37:06.856Z,100107.12
2019-04-10T16:42:11.061Z,100090.92
2019-04-10T16:47:15.249Z,100119.83
2019-04-10T16:52:19.317Z,100119.83
2019-04-10T16:57:23.361Z,100113.86
2019-04-10T17:02:28.387Z,100127.09
2019-04-10T17:07:32.803Z,100126.39
2019-04-10T17:12:37.802Z,100131.08
2019-04-10T17:17:42.358Z,100129.57
2019-04-10T17:22:49.197Z,100129.57
2019-04-10T17:27:52.239Z,100142.13
2019-04-10T17:32:56.394Z,100147.27
2019-04-10T17:38:00.453Z,100157.80
2019-04-10T17:43:05.673Z,100163.16
2019-04-10T17:48:09.772Z,100164.22
2019-04-10T17:53:15.202Z,100168.63
2019-04-10T17:58:19.698Z,100178.47
2019-04-10T18:03:25.369Z,100186.42
2019-04-10T18:08:30.171Z,100186.42
2019-04-10T18:13:34.294Z,100189.91
2019-04-10T18:18:38.380Z,100208.49
2019-04-10T18:23:42.401Z,100217.17
2019-04-10T18:28:46.657Z,100217.17
2019-04-10T18:33:53.014Z,100237.81
2019-04-10T18:38:57.717Z,100246.61
2019-04-10T18:44:01.903Z,100251.02
2019-04-10T18:49:07.209Z,100261.52
2019-04-10T18:54:12.420Z,100264.70
2019-04-10T18:59:26.832Z,100264.70
2019-04-10T19:04:36.250Z,100269.56
2019-04-10T19:09:41.006Z,100280.00
2019-04-10T19:14:45.293Z,100280.00
2019-04-10T19:19:50.791Z,100293.33
2019-04-10T19:24:54.972Z,100303.22
2019-04-10T19:29:59.343Z,100315.03
2019-04-10T19:35:04.681Z,100318.34
2019-04-10T19:40:09.339Z,100317.56
2019-04-10T19:45:13.881Z,100324.55
2019-04-10T19:50:17.945Z,100324.55
2019-04-10T19:55:22.048Z,100327.24
2019-04-10T20:00:31.193Z,100326.34
2019-04-10T20:05:37.247Z,100326.29
2019-04-10T20:10:41.643Z,100330.50
2019-04-10T20:15:46.840Z,100328.30
2019-04-10T20:20:51.396Z,100328.30
2019-04-10T20:25:56.748Z,100318.46
2019-04-10T20:31:01.339Z,100340.56
2019-04-10T20:36:06.744Z,100344.11
2019-04-10T20:41:11.062Z,100352.28
2019-04-10T20:46:15.177Z,100363.47
2019-04-10T20:51:19.213Z,100362.80
2019-04-10T20:56:24.270Z,100368.98
2019-04-10T21:01:28.804Z,100368.12
2019-04-10T21:06:33.867Z,100368.12
2019-04-10T21:11:38.061Z,100377.56
2019-04-10T21:16:42.235Z,100380.51
2019-04-10T21:21:46.868Z,100390.55
2019-04-10T21:26:51.021Z,100398.64
2019-04-10T21:32:05.535Z,100403.54
2019-04-10T21:37:10.218Z,100408.94
2019-04-10T21:42:21.090Z,100410.28
2019-04-10T21:47:20.215Z,100415.79
2019-04-10T21:52:25.368Z,100415.79
2019-04-10T21:57:29.985Z,100420.33
2019-04-10T22:02:34.398Z,100414.53
2019-04-10T22:08:07.128Z,100415.13
2019-04-10T22:13:11.675Z,100415.13
2019-04-10T22:23:20.190Z,100425.91
2019-04-10T22:28:25.337Z,100429.95
2019-04-10T22:33:29.977Z,100432.77
2019-04-10T22:38:34.336Z,100424.20
2019-04-10T22:43:38.714Z,100422.47
2019-04-10T22:48:43.693Z,100436.33
2019-04-10T22:53:48.063Z,100440.37
2019-04-10T22:58:53.227Z,100442.20
2019-04-10T23:03:57.643Z,100446.25
2019-04-10T23:09:02.129Z,100446.25
2019-04-10T23:14:06.808Z,100445.96
2019-04-10T23:19:11.961Z,100465.31
2019-04-10T23:24:16.328Z,100464.34
2019-04-10T23:29:20.459Z,100464.34
2019-04-10T23:40:16.898Z,100474.27
2019-04-10T23:45:21.807Z,100480.34
2019-04-10T23:50:26.184Z,100480.34
2019-04-10T23:55:30.279Z,100488.44
